createdAt,value
2022-09-15T00:01:37.219Z,101341.08
2022-09-15T00:03:50.630Z,101346.89
2022-09-15T00:06:04.044Z,101352.02
2022-09-15T00:08:17.706Z,101349.86
2022-09-15T00:10:31.218Z,101353.77
2022-09-15T00:12:44.746Z,101347.73
2022-09-15T00:14:58.338Z,101346.10
2022-09-15T00:17:12.238Z,101350.48
2022-09-15T00:19:26.453Z,101348.95
2022-09-15T00:21:41.912Z,101351.20
2022-09-15T00:23:55.852Z,101348.77
2022-09-15T00:26:13.783Z,101350.95
2022-09-15T00:28:27.644Z,101351.57
2022-09-15T00:30:43.270Z,101351.71
2022-09-15T00:32:56.572Z,101353.34
2022-09-15T00:35:11.062Z,101355.67
2022-09-15T00:37:24.436Z,101354.16
2022-09-15T00:39:37.856Z,101354.56
2022-09-15T00:41:51.182Z,101355.32
2022-09-15T00:44:06.208Z,101356.14
2022-09-15T00:46:28.906Z,101352.92
2022-09-15T00:48:45.085Z,101353.13
2022-09-15T00:51:01.796Z,101355.49
2022-09-15T00:53:16.803Z,101356.09
2022-09-15T00:55:33.548Z,101352.11
2022-09-15T00:57:50.659Z,101355.05
2022-09-15T01:00:07.285Z,101357.02
2022-09-15T01:02:25.318Z,101354.80
2022-09-15T01:04:38.705Z,101356.52
2022-09-15T01:07:02.074Z,101354.88
2022-09-15T01:09:20.168Z,101352.46
2022-09-15T01:11:33.680Z,101350.38
2022-09-15T01:13:47.083Z,101350.82
2022-09-15T01:16:11.131Z,101351.60
2022-09-15T01:18:31.395Z,101356.48
2022-09-15T01:21:12.540Z,101355.27
2022-09-15T01:24:11.597Z,101357.64
2022-09-15T01:26:52.536Z,101356.67
2022-09-15T01:29:43.793Z,101359.28
2022-09-15T01:32:23.188Z,101364.04
2022-09-15T01:34:44.034Z,101364.34
2022-09-15T01:37:05.040Z,101365.45
2022-09-15T01:39:24.214Z,101365.80
2022-09-15T01:41:44.307Z,101364.73
2022-09-15T01:44:03.037Z,101367.15
2022-09-15T01:46:18.826Z,101365.73
2022-09-15T01:48:33.797Z,101366.71
2022-09-15T01:50:50.746Z,101365.20
2022-09-15T01:53:08.908Z,101368.60
2022-09-15T01:55:26.058Z,101367.51
2022-09-15T01:57:39.527Z,101368.93
2022-09-15T01:59:53.188Z,101368.89
2022-09-15T02:02:14.575Z,101373.17
2022-09-15T02:04:32.853Z,101371.73
2022-09-15T02:06:54.479Z,101372.11
2022-09-15T02:09:12.647Z,101373.23
2022-09-15T02:11:31.599Z,101373.25
2022-09-15T02:13:58.814Z,101375.86
2022-09-15T02:16:21.336Z,101377.41
2022-09-15T02:18:43.006Z,101379.41
2022-09-15T02:21:01.171Z,101380.07
2022-09-15T02:23:18.967Z,101381.83
2022-09-15T02:25:36.932Z,101385.60
2022-09-15T02:27:53.442Z,101386.91
2022-09-15T02:30:10.238Z,101394.80
2022-09-15T02:32:26.996Z,101393.48
2022-09-15T02:34:45.135Z,101400.91
2022-09-15T02:37:00.144Z,101404.93
2022-09-15T02:39:17.014Z,101408.44
2022-09-15T02:41:30.628Z,101414.16
2022-09-15T02:43:51.250Z,101412.33
2022-09-15T02:46:05.925Z,101414.54
2022-09-15T02:48:19.522Z,101416.38
2022-09-15T02:50:32.966Z,101416.48
2022-09-15T02:52:46.626Z,101420.52
2022-09-15T02:55:00.537Z,101424.89
2022-09-15T02:57:15.132Z,101427.50
2022-09-15T02:59:49.959Z,101433.36
2022-09-15T03:02:03.419Z,101435.50
2022-09-15T03:04:16.819Z,101438.37
2022-09-15T03:06:35.587Z,101440.35
2022-09-15T03:08:51.147Z,101439.20
2022-09-15T03:11:05.616Z,101440.08
2022-09-15T03:13:19.604Z,101442.87
2022-09-15T03:15:32.909Z,101443.40
2022-09-15T03:17:48.243Z,101444.69
2022-09-15T03:20:01.818Z,101451.61
2022-09-15T03:22:15.526Z,101450.23
2022-09-15T03:24:28.908Z,101452.72
2022-09-15T03:26:42.282Z,101453.98
2022-09-15T03:28:55.760Z,101459.61
2022-09-15T03:31:09.970Z,101457.89
2022-09-15T03:33:23.338Z,101459.42
2022-09-15T03:35:36.577Z,101461.04
2022-09-15T03:37:49.943Z,101464.31
2022-09-15T03:40:03.237Z,101464.55
2022-09-15T03:42:17.439Z,101466.58
2022-09-15T03:44:31.701Z,101466.48
2022-09-15T03:46:45.759Z,101465.95
2022-09-15T03:48:59.229Z,101467.98
2022-09-15T03:51:13.870Z,101468.86
2022-09-15T03:53:28.045Z,101468.69
2022-09-15T03:55:41.513Z,101464.00
2022-09-15T03:57:55.097Z,101465.92
2022-09-15T04:00:09.541Z,101470.98
2022-09-15T04:02:22.975Z,101476.05
2022-09-15T04:04:36.723Z,101472.72
2022-09-15T04:06:50.541Z,101472.89
2022-09-15T04:09:04.448Z,101473.45
2022-09-15T04:11:18.933Z,101473.77
2022-09-15T04:13:32.345Z,101471.95
2022-09-15T04:15:45.749Z,101472.14
2022-09-15T04:17:59.073Z,101474.64
2022-09-15T04:20:14.967Z,101470.72
2022-09-15T04:22:28.882Z,101472.02
2022-09-15T04:24:42.246Z,101472.13
2022-09-15T04:26:55.309Z,101469.84
2022-09-15T04:29:09.826Z,101476.36
2022-09-15T04:31:24.112Z,101480.36
2022-09-15T04:33:37.435Z,101478.32
2022-09-15T04:35:51.223Z,101481.58
2022-09-15T04:38:05.099Z,101483.52
2022-09-15T04:40:19.578Z,101482.61
2022-09-15T04:42:32.921Z,101483.91
2022-09-15T04:44:46.476Z,101487.16
2022-09-15T04:46:59.732Z,101490.43
2022-09-15T04:49:13.065Z,101492.34
2022-09-15T04:51:28.446Z,101493.16
2022-09-15T04:53:41.674Z,101493.41
2022-09-15T04:55:55.055Z,101493.82
2022-09-15T04:58:08.970Z,101493.52
2022-09-15T05:00:23.564Z,101497.63
2022-09-15T05:02:36.788Z,101502.52
2022-09-15T05:04:52.637Z,101502.25
2022-09-15T05:07:05.883Z,101503.77
2022-09-15T05:09:20.417Z,101504.10
2022-09-15T05:11:34.107Z,101503.22
2022-09-15T05:13:47.708Z,101504.64
2022-09-15T05:16:06.931Z,101507.65
2022-09-15T05:18:20.273Z,101509.20
2022-09-15T05:20:33.514Z,101509.17
2022-09-15T05:22:46.836Z,101503.27
2022-09-15T05:25:00.269Z,101506.33
2022-09-15T05:27:13.686Z,101504.30
2022-09-15T05:29:26.920Z,101508.03
2022-09-15T05:31:40.587Z,101508.79
2022-09-15T05:33:54.692Z,101512.02
2022-09-15T05:36:08.957Z,101510.02
2022-09-15T05:38:22.344Z,101511.08
2022-09-15T05:40:36.127Z,101509.58
2022-09-15T05:42:49.569Z,101511.57
2022-09-15T05:45:02.729Z,101511.20
2022-09-15T05:47:16.010Z,101509.78
2022-09-15T05:49:30.519Z,101510.45
2022-09-15T05:51:43.833Z,101512.62
2022-09-15T05:53:57.215Z,101512.16
2022-09-15T05:56:13.802Z,101511.91
2022-09-15T05:58:27.590Z,101516.35
2022-09-15T06:00:40.149Z,101514.02
2022-09-15T06:02:53.445Z,101518.19
2022-09-15T06:05:06.697Z,101519.39
2022-09-15T06:07:19.875Z,101523.65
2022-09-15T06:09:33.149Z,101521.34
2022-09-15T06:11:46.617Z,101525.92
2022-09-15T06:14:02.151Z,101524.73
2022-09-15T06:16:17.165Z,101524.20
2022-09-15T06:18:30.496Z,101526.77
2022-09-15T06:20:43.750Z,101527.11
2022-09-15T06:22:57.362Z,101528.90
2022-09-15T06:25:11.724Z,101527.15
2022-09-15T06:27:24.783Z,101528.38
2022-09-15T06:29:38.221Z,101525.28
2022-09-15T06:31:51.513Z,101525.58
2022-09-15T06:34:05.175Z,101524.78
2022-09-15T06:36:19.022Z,101527.86
2022-09-15T06:38:32.538Z,101528.38
2022-09-15T06:40:46.243Z,101531.84
2022-09-15T06:43:03.088Z,101531.89
2022-09-15T06:45:18.261Z,101538.09
2022-09-15T06:47:35.068Z,101543.73
2022-09-15T06:49:48.285Z,101545.14
2022-09-15T06:52:03.156Z,101544.49
2022-09-15T06:54:17.199Z,101545.79
2022-09-15T06:56:34.471Z,101549.77
2022-09-15T06:58:52.309Z,101552.50
2022-09-15T07:01:15.455Z,101553.92
2022-09-15T07:03:28.796Z,101557.17
2022-09-15T07:05:42.143Z,101555.80
2022-09-15T07:07:55.678Z,101557.83
2022-09-15T07:10:10.248Z,101556.61
2022-09-15T07:12:23.506Z,101552.65
2022-09-15T07:14:36.784Z,101553.30
2022-09-15T07:16:50.056Z,101549.39
2022-09-15T07:19:04.886Z,101551.20
2022-09-15T07:21:20.099Z,101555.44
2022-09-15T07:23:33.624Z,101555.09
2022-09-15T07:25:47.201Z,101554.11
2022-09-15T07:28:00.452Z,101556.02
2022-09-15T07:30:15.236Z,101558.38
2022-09-15T07:32:28.383Z,101562.83
2022-09-15T07:34:41.602Z,101562.06
2022-09-15T07:36:54.852Z,101562.86
2022-09-15T07:39:08.742Z,101563.77
2022-09-15T07:41:24.038Z,101562.42
2022-09-15T07:43:37.283Z,101564.89
2022-09-15T07:45:50.555Z,101568.33
2022-09-15T07:48:03.755Z,101570.58
2022-09-15T07:50:16.962Z,101569.26
2022-09-15T07:52:30.624Z,101568.86
2022-09-15T07:54:44.109Z,101569.30
2022-09-15T07:56:57.313Z,101569.96
2022-09-15T07:59:10.670Z,101571.27
2022-09-15T08:01:25.213Z,101574.71
2022-09-15T08:03:38.454Z,101577.03
2022-09-15T08:05:51.991Z,101573.88
2022-09-15T08:08:05.320Z,101573.83
2022-09-15T08:10:18.749Z,101574.42
2022-09-15T08:12:32.682Z,101575.80
2022-09-15T08:14:45.809Z,101576.08
2022-09-15T08:17:02.182Z,101581.00
2022-09-15T08:19:15.496Z,101580.56
2022-09-15T08:21:29.024Z,101587.21
2022-09-15T08:23:42.278Z,101589.48
2022-09-15T08:25:55.538Z,101595.02
2022-09-15T08:28:09.453Z,101595.78
2022-09-15T08:30:23.156Z,101598.71
2022-09-15T08:32:36.423Z,101598.30
2022-09-15T08:34:49.700Z,101600.88
2022-09-15T08:37:02.992Z,101601.67
2022-09-15T08:39:16.401Z,101601.59
2022-09-15T08:41:32.369Z,101600.02
2022-09-15T08:43:49.604Z,101599.48
2022-09-15T08:46:08.132Z,101603.17
2022-09-15T08:48:24.927Z,101603.56
2022-09-15T08:50:43.401Z,101607.20
2022-09-15T08:53:02.371Z,101606.70
2022-09-15T08:55:21.200Z,101610.74
2022-09-15T08:57:34.458Z,101607.08
2022-09-15T08:59:47.703Z,101609.33
2022-09-15T09:02:17.081Z,101611.70
2022-09-15T09:04:44.317Z,101609.20
2022-09-15T09:07:09.957Z,101610.73
2022-09-15T09:09:29.979Z,101612.80
2022-09-15T09:12:00.861Z,101613.08
2022-09-15T09:14:23.209Z,101613.20
2022-09-15T09:16:54.765Z,101611.70
2022-09-15T09:19:28.976Z,101614.99
2022-09-15T09:21:47.715Z,101617.05
2022-09-15T09:24:06.393Z,101613.41
2022-09-15T09:26:20.426Z,101613.48
2022-09-15T09:28:40.846Z,101613.61
2022-09-15T09:30:54.797Z,101617.30
2022-09-15T09:33:19.628Z,101614.00
2022-09-15T09:35:43.410Z,101613.92
2022-09-15T09:37:57.886Z,101611.11
2022-09-15T09:40:16.414Z,101610.60
2022-09-15T09:42:34.567Z,101615.00
2022-09-15T09:44:48.173Z,101615.98
2022-09-15T09:47:01.906Z,101616.95
2022-09-15T09:49:22.260Z,101616.28
2022-09-15T09:51:40.474Z,101616.98
2022-09-15T09:53:59.407Z,101613.45
2022-09-15T09:56:26.651Z,101613.42
2022-09-15T09:58:39.845Z,101612.52
2022-09-15T10:00:53.779Z,101612.34
2022-09-15T10:03:18.589Z,101613.57
2022-09-15T10:05:31.839Z,101611.95
2022-09-15T10:07:47.031Z,101616.69
2022-09-15T10:10:02.262Z,101618.85
2022-09-15T10:12:35.591Z,101616.23
2022-09-15T10:14:53.459Z,101616.67
2022-09-15T10:17:13.358Z,101621.64
2022-09-15T10:19:26.636Z,101622.77
2022-09-15T10:21:42.820Z,101624.17
2022-09-15T10:23:56.143Z,101622.17
2022-09-15T10:26:26.073Z,101621.14
2022-09-15T10:28:39.899Z,101622.14
2022-09-15T10:31:06.086Z,101623.77
2022-09-15T10:33:29.075Z,101627.64
2022-09-15T10:35:48.106Z,101629.05
2022-09-15T10:38:12.638Z,101634.70
2022-09-15T10:40:41.940Z,101637.01
2022-09-15T10:43:01.603Z,101634.13
2022-09-15T10:45:28.357Z,101635.92
2022-09-15T10:47:54.679Z,101637.48
2022-09-15T10:50:14.146Z,101639.27
2022-09-15T10:52:42.217Z,101637.98
2022-09-15T10:55:31.809Z,101639.79
2022-09-15T10:58:09.314Z,101638.71
2022-09-15T11:00:27.052Z,101631.91
2022-09-15T11:03:15.339Z,101633.11
2022-09-15T11:05:42.414Z,101631.06
2022-09-15T11:08:06.785Z,101629.90
2022-09-15T11:10:24.561Z,101629.91
2022-09-15T11:12:52.307Z,101629.70
2022-09-15T11:15:19.864Z,101629.59
2022-09-15T11:17:48.489Z,101630.59
2022-09-15T11:20:18.602Z,101627.67
2022-09-15T11:22:36.757Z,101628.52
2022-09-15T11:24:54.535Z,101629.16
2022-09-15T11:27:15.075Z,101633.29
2022-09-15T11:29:31.810Z,101633.13
2022-09-15T11:31:48.415Z,101636.69
2022-09-15T11:34:06.877Z,101634.96
2022-09-15T11:36:23.918Z,101636.05
2022-09-15T11:38:44.184Z,101637.45
2022-09-15T11:41:10.100Z,101637.95
2022-09-15T11:43:34.094Z,101633.73
2022-09-15T11:45:49.551Z,101631.75
2022-09-15T11:48:08.559Z,101633.14
2022-09-15T11:50:26.556Z,101631.49
2022-09-15T11:52:55.545Z,101632.66
2022-09-15T11:55:18.416Z,101631.48
2022-09-15T11:57:35.717Z,101634.65
2022-09-15T11:59:57.647Z,101635.67
2022-09-15T12:02:23.719Z,101640.90
2022-09-15T12:04:42.844Z,101647.60
2022-09-15T12:07:01.640Z,101646.95
2022-09-15T12:09:19.774Z,101649.44
2022-09-15T12:11:35.778Z,101649.25
2022-09-15T12:13:49.166Z,101649.83
2022-09-15T12:16:03.701Z,101647.27
2022-09-15T12:18:37.833Z,101650.14
2022-09-15T12:20:57.971Z,101642.98
2022-09-15T12:23:22.702Z,101650.94
2022-09-15T12:25:44.949Z,101651.33
2022-09-15T12:28:27.891Z,101650.14
2022-09-15T12:30:49.019Z,101650.23
2022-09-15T12:33:03.000Z,101652.05
2022-09-15T12:35:37.028Z,101649.52
2022-09-15T12:37:52.824Z,101648.20
2022-09-15T12:40:08.743Z,101652.42
2022-09-15T12:42:33.583Z,101652.21
2022-09-15T12:44:49.570Z,101651.55
2022-09-15T12:47:04.078Z,101653.44
2022-09-15T12:49:22.769Z,101652.52
2022-09-15T12:51:36.505Z,101651.60
2022-09-15T12:53:58.104Z,101653.16
2022-09-15T12:56:14.542Z,101656.70
2022-09-15T12:58:40.383Z,101661.79
2022-09-15T13:01:17.123Z,101659.65
2022-09-15T13:04:09.061Z,101664.13
2022-09-15T13:06:25.645Z,101663.89
2022-09-15T13:09:15.947Z,101668.38
2022-09-15T13:11:46.136Z,101672.22
2022-09-15T13:14:11.704Z,101671.77
2022-09-15T13:16:31.875Z,101672.88
2022-09-15T13:18:47.553Z,101673.39
2022-09-15T13:21:07.960Z,101680.71
2022-09-15T13:23:25.115Z,101683.20
2022-09-15T13:25:38.609Z,101685.42
2022-09-15T13:27:55.929Z,101689.63
2022-09-15T13:30:26.685Z,101693.93
2022-09-15T13:32:50.324Z,101699.63
2022-09-15T13:35:31.616Z,101696.94
2022-09-15T13:38:24.045Z,101697.45
2022-09-15T13:41:02.768Z,101699.84
2022-09-15T13:43:46.707Z,101702.25
2022-09-15T13:46:13.832Z,101704.42
2022-09-15T13:48:49.681Z,101709.93
2022-09-15T13:51:07.338Z,101709.06
2022-09-15T13:53:45.647Z,101707.33
2022-09-15T13:55:59.796Z,101703.80
2022-09-15T14:01:05.791Z,101712.61
2022-09-15T14:03:26.910Z,101716.05
2022-09-15T14:05:41.082Z,101715.23
2022-09-15T14:08:01.309Z,101714.60
2022-09-15T14:10:28.296Z,101717.00
2022-09-15T14:12:43.593Z,101720.62
2022-09-15T14:15:00.335Z,101722.86
2022-09-15T14:17:25.652Z,101730.91
2022-09-15T14:19:42.520Z,101734.77
2022-09-15T14:21:58.458Z,101737.09
2022-09-15T14:24:24.033Z,101736.41
2022-09-15T14:26:38.952Z,101740.48
2022-09-15T14:28:59.753Z,101743.80
2022-09-15T14:31:13.321Z,101748.52
2022-09-15T14:33:27.232Z,101751.95
2022-09-15T14:35:43.156Z,101754.38
2022-09-15T14:37:58.697Z,101753.76
2022-09-15T14:40:26.702Z,101753.14
2022-09-15T14:42:44.291Z,101755.75
2022-09-15T14:47:32.486Z,101759.80
2022-09-15T14:49:45.974Z,101761.73
2022-09-15T14:52:00.403Z,101763.29
2022-09-15T14:54:19.567Z,101765.14
2022-09-15T14:56:38.014Z,101763.04
2022-09-15T14:58:54.415Z,101765.77
2022-09-15T15:01:15.030Z,101768.00
2022-09-15T15:03:34.734Z,101769.93
2022-09-15T15:05:58.072Z,101773.21
2022-09-15T15:08:24.847Z,101772.35
2022-09-15T15:10:38.744Z,101771.27
2022-09-15T15:12:54.932Z,101772.52
2022-09-15T15:15:08.852Z,101777.55
2022-09-15T15:17:36.855Z,101777.88
2022-09-15T15:20:01.169Z,101779.52
2022-09-15T15:22:23.844Z,101782.55
2022-09-15T15:24:37.487Z,101780.52
2022-09-15T15:26:53.103Z,101782.02
2022-09-15T15:29:06.567Z,101786.65
2022-09-15T15:31:21.764Z,101782.59
2022-09-15T15:33:35.377Z,101781.23
2022-09-15T15:35:48.867Z,101780.09
2022-09-15T15:38:10.716Z,101785.52
2022-09-15T15:40:25.808Z,101784.48
2022-09-15T15:42:39.571Z,101785.48
2022-09-15T15:45:24.501Z,101788.15
2022-09-15T15:47:39.407Z,101787.33
2022-09-15T15:50:12.327Z,101786.28
2022-09-15T15:52:26.942Z,101787.00
2022-09-15T15:54:41.419Z,101790.80
2022-09-15T15:56:54.748Z,101788.52
2022-09-15T15:59:08.110Z,101791.85
2022-09-15T16:01:21.326Z,101789.17
2022-09-15T16:03:34.621Z,101789.54
2022-09-15T16:05:49.733Z,101785.71
2022-09-15T16:08:06.948Z,101781.89
2022-09-15T16:10:24.275Z,101781.34
2022-09-15T16:12:37.457Z,101784.67
2022-09-15T16:14:50.657Z,101785.80
2022-09-15T16:17:04.562Z,101785.08
2022-09-15T16:19:17.870Z,101781.59
2022-09-15T16:21:38.048Z,101780.16
2022-09-15T16:23:51.535Z,101778.86
2022-09-15T16:26:07.340Z,101780.23
2022-09-15T16:28:20.850Z,101782.23
2022-09-15T16:30:34.284Z,101783.98
2022-09-15T16:32:47.458Z,101784.48
2022-09-15T16:35:00.614Z,101786.05
2022-09-15T16:37:14.079Z,101782.52
2022-09-15T16:39:27.764Z,101787.16
2022-09-15T16:41:41.583Z,101788.56
2022-09-15T16:43:57.053Z,101793.05
2022-09-15T16:46:12.636Z,101794.04
2022-09-15T16:48:26.191Z,101794.84
2022-09-15T16:50:42.764Z,101795.70
2022-09-15T16:53:03.630Z,101796.50
2022-09-15T16:55:34.942Z,101796.23
2022-09-15T16:57:48.265Z,101794.35
2022-09-15T17:00:01.838Z,101796.85
2022-09-15T17:02:20.135Z,101800.24
2022-09-15T17:04:33.503Z,101798.97
2022-09-15T17:06:46.915Z,101799.18
2022-09-15T17:09:01.480Z,101805.59
2022-09-15T17:11:19.135Z,101809.16
2022-09-15T17:13:34.886Z,101809.70
2022-09-15T17:15:48.966Z,101807.08
2022-09-15T17:18:02.772Z,101805.63
2022-09-15T17:20:16.311Z,101803.92
2022-09-15T17:22:29.725Z,101805.98
2022-09-15T17:24:43.021Z,101806.86
2022-09-15T17:26:56.693Z,101805.28
2022-09-15T17:29:10.033Z,101806.19
2022-09-15T17:31:26.136Z,101804.27
2022-09-15T17:33:39.786Z,101805.80
2022-09-15T17:35:53.943Z,101803.71
2022-09-15T17:38:07.935Z,101805.45
2022-09-15T17:40:22.812Z,101805.04
2022-09-15T17:42:36.456Z,101804.20
2022-09-15T17:44:49.797Z,101806.62
2022-09-15T17:47:02.940Z,101810.88
2022-09-15T17:49:16.214Z,101811.66
2022-09-15T17:51:29.469Z,101812.63
2022-09-15T17:53:42.788Z,101809.16
2022-09-15T17:55:57.291Z,101807.73
2022-09-15T17:58:11.023Z,101811.38
2022-09-15T18:00:25.872Z,101809.50
2022-09-15T18:02:39.307Z,101812.14
2022-09-15T18:04:52.637Z,101815.08
2022-09-15T18:07:05.879Z,101817.53
2022-09-15T18:09:19.051Z,101818.80
2022-09-15T18:11:32.291Z,101820.54
2022-09-15T18:13:45.675Z,101819.98
2022-09-15T18:15:59.834Z,101822.35
2022-09-15T18:18:15.955Z,101820.24
2022-09-15T18:20:30.964Z,101823.13
2022-09-15T18:22:45.143Z,101824.82
2022-09-15T18:24:58.454Z,101824.25
2022-09-15T18:27:11.999Z,101821.32
2022-09-15T18:29:25.418Z,101818.16
2022-09-15T18:31:38.840Z,101818.89
2022-09-15T18:33:52.068Z,101818.70
2022-09-15T18:36:05.912Z,101819.74
2022-09-15T18:38:19.158Z,101825.21
2022-09-15T18:40:33.213Z,101817.15
2022-09-15T18:42:46.852Z,101816.04
2022-09-15T18:45:00.059Z,101817.92
2022-09-15T18:47:13.840Z,101817.85
2022-09-15T18:49:27.739Z,101819.45
2022-09-15T18:51:51.704Z,101818.28
2022-09-15T18:54:05.959Z,101817.40
2022-09-15T18:56:19.909Z,101808.32
2022-09-15T18:58:33.209Z,101809.09
2022-09-15T19:00:48.519Z,101806.66
2022-09-15T19:03:05.430Z,101808.02
2022-09-15T19:05:19.510Z,101807.98
2022-09-15T19:07:33.560Z,101807.42
2022-09-15T19:09:46.987Z,101806.84
2022-09-15T19:12:00.235Z,101806.53
2022-09-15T19:14:13.625Z,101803.17
2022-09-15T19:16:46.717Z,101804.45
2022-09-15T19:19:00.984Z,101806.17
2022-09-15T19:21:15.433Z,101803.77
2022-09-15T19:23:28.665Z,101805.02
2022-09-15T19:25:43.904Z,101807.56
2022-09-15T19:27:57.109Z,101807.86
2022-09-15T19:30:13.448Z,101810.05
2022-09-15T19:32:29.022Z,101809.87
2022-09-15T19:34:43.283Z,101808.98
2022-09-15T19:36:56.571Z,101807.14
2022-09-15T19:39:09.970Z,101807.13
2022-09-15T19:41:23.603Z,101805.05
2022-09-15T19:43:37.492Z,101806.83
2022-09-15T19:45:51.079Z,101803.78
2022-09-15T19:48:04.411Z,101803.45
2022-09-15T19:50:17.866Z,101809.35
2022-09-15T19:52:31.249Z,101809.00
2022-09-15T19:54:44.806Z,101808.94
2022-09-15T19:56:58.492Z,101809.56
2022-09-15T19:59:11.996Z,101811.07
2022-09-15T20:01:25.755Z,101809.15
2022-09-15T20:03:39.095Z,101804.14
2022-09-15T20:05:57.238Z,101803.70
2022-09-15T20:08:10.730Z,101801.00
2022-09-15T20:10:24.154Z,101799.32
2022-09-15T20:12:38.003Z,101799.75
2022-09-15T20:14:51.346Z,101791.83
2022-09-15T20:17:05.094Z,101795.15
2022-09-15T20:19:18.335Z,101794.05
2022-09-15T20:21:50.839Z,101803.70
2022-09-15T20:24:06.362Z,101802.55
2022-09-15T20:26:21.203Z,101798.05
2022-09-15T20:28:34.946Z,101799.96
2022-09-15T20:30:48.356Z,101798.33
2022-09-15T20:33:01.957Z,101802.03
2022-09-15T20:35:16.065Z,101801.48
2022-09-15T20:37:35.253Z,101803.88
2022-09-15T20:39:50.639Z,101807.82
2022-09-15T20:42:03.912Z,101808.52
2022-09-15T20:44:17.551Z,101809.50
2022-09-15T20:46:32.635Z,101805.39
2022-09-15T20:48:46.638Z,101807.91
2022-09-15T20:51:06.322Z,101805.16
2022-09-15T20:53:19.552Z,101808.85
2022-09-15T20:55:32.789Z,101808.74
2022-09-15T20:57:46.574Z,101809.16
2022-09-15T20:59:59.949Z,101812.24
2022-09-15T21:02:13.815Z,101815.36
2022-09-15T21:04:27.461Z,101816.77
2022-09-15T21:06:41.393Z,101818.71
2022-09-15T21:08:55.095Z,101817.52
2022-09-15T21:11:10.188Z,101821.19
2022-09-15T21:13:23.417Z,101821.33
2022-09-15T21:15:36.675Z,101821.67
2022-09-15T21:17:51.083Z,101822.03
2022-09-15T21:20:04.324Z,101827.98
2022-09-15T21:22:17.608Z,101825.21
2022-09-15T21:24:30.995Z,101830.38
2022-09-15T21:26:57.976Z,101834.12
2022-09-15T21:29:11.942Z,101830.48
2022-09-15T21:31:27.326Z,101832.88
2022-09-15T21:33:44.945Z,101829.83
2022-09-15T21:36:04.774Z,101828.27
2022-09-15T21:38:18.108Z,101826.81
2022-09-15T21:40:31.317Z,101828.30
2022-09-15T21:42:44.656Z,101825.64
2022-09-15T21:44:58.582Z,101832.20
2022-09-15T21:47:12.050Z,101832.39
2022-09-15T21:49:25.719Z,101833.67
2022-09-15T21:51:39.221Z,101838.76
2022-09-15T21:53:53.526Z,101839.05
2022-09-15T21:56:10.685Z,101837.17
2022-09-15T21:58:26.113Z,101835.67
2022-09-15T22:00:41.383Z,101837.99
2022-09-15T22:02:57.121Z,101837.98
2022-09-15T22:05:12.107Z,101836.02
2022-09-15T22:07:25.425Z,101833.99
2022-09-15T22:09:39.988Z,101834.93
2022-09-15T22:11:53.627Z,101835.38
2022-09-15T22:14:09.311Z,101831.34
2022-09-15T22:16:23.973Z,101828.63
2022-09-15T22:18:38.894Z,101828.02
2022-09-15T22:20:53.572Z,101828.60
2022-09-15T22:23:08.369Z,101829.25
2022-09-15T22:25:22.093Z,101828.88
2022-09-15T22:27:35.494Z,101831.20
2022-09-15T22:29:48.772Z,101822.55
2022-09-15T22:32:02.152Z,101821.52
2022-09-15T22:34:15.303Z,101827.98
2022-09-15T22:36:30.381Z,101826.75
2022-09-15T22:38:44.137Z,101827.40
2022-09-15T22:40:58.008Z,101827.30
2022-09-15T22:43:11.140Z,101822.30
2022-09-15T22:45:24.366Z,101823.95
2022-09-15T22:47:38.859Z,101824.60
2022-09-15T22:49:52.027Z,101824.67
2022-09-15T22:52:05.606Z,101826.50
2022-09-15T22:54:18.984Z,101824.83
2022-09-15T22:56:32.882Z,101822.39
2022-09-15T22:58:47.478Z,101819.55
2022-09-15T23:01:05.459Z,101819.34
2022-09-15T23:03:18.805Z,101815.48
2022-09-15T23:05:32.665Z,101814.08
2022-09-15T23:07:45.961Z,101813.90
2022-09-15T23:09:59.895Z,101812.57
2022-09-15T23:12:13.492Z,101812.86
2022-09-15T23:14:26.606Z,101812.73
2022-09-15T23:16:40.016Z,101811.41
2022-09-15T23:18:53.351Z,101814.13
2022-09-15T23:21:09.044Z,101813.08
2022-09-15T23:23:22.292Z,101813.28
2022-09-15T23:25:35.484Z,101804.33
2022-09-15T23:27:49.221Z,101809.45
2022-09-15T23:30:02.416Z,101802.89
2022-09-15T23:32:15.690Z,101799.67
2022-09-15T23:34:29.711Z,101804.34
2022-09-15T23:36:43.057Z,101811.77
2022-09-15T23:38:56.456Z,101808.63
2022-09-15T23:41:10.351Z,101805.96
2022-09-15T23:43:23.965Z,101802.83
2022-09-15T23:45:37.228Z,101803.48
2022-09-15T23:47:50.467Z,101802.15
2022-09-15T23:50:03.743Z,101797.05
2022-09-15T23:52:16.945Z,101799.80
2022-09-15T23:54:30.188Z,101800.91
2022-09-15T23:56:44.576Z,101797.86
2022-09-15T23:58:57.907Z,101797.95
